Ana Sayfa
METAR-TAF:

METAR-TAF

Havaalanları :

Elizabeth City, Kuzey Carolina, Amerika Birleşik Devletleri

Enlem: 36-15-47N, Boylam: 076-10-58W, yükseklik: 3 m

Güncel hava durumu gözlemi

Rapor saat 22:54 UTC de 32 dakika önce yapıldı.
Rüzgar kuzeydan 8 kt
Sıcaklık 6°C
Nem 70%
Basınç 1036 hPa
Görüş mesafesi: 16.1 km
Açık gökyüzü

METAR: KECG 122254Z 01008KT 10SM CLR 06/01 A3059 RMK AO2 SLP357 T00560006

Saat: 18:26 (23:26 UTC)

Tahmin

Rapor saat 20:55 UTC de 2 saat ve 31 dakika önce yapıldı.
Ayın 12'si saat 21 UTC'den ayın 13'si saat 18 UTC'ye kadar geçerli Tahmin
Rüzgar kuzey/kuzeydoğudan 9 kt
Görüş mesafesi: 10 km
3500 ft yükseklikte parçalı bulutlu
Ayın 13'si saat 0100 UTC'den
Rüzgar kuzeydoğudan 6 kt
Görüş mesafesi: 10 km
3000 ft yükseklikte çok bulutlu
Ayın 13'si saat 1000 UTC'den
Rüzgar kuzeydoğudan 5 kt
Görüş mesafesi: 10 km
2500 ft yükseklikte çok bulutlu

TAF: KECG 122055Z 1221/1318 03009KT P6SM SCT035 FM130100 04006KT P6SM OVC030 FM131000 05005KT P6SM OVC025

4.000'den fazla havaalanı için hava durumu gözlemleri ve tahminleri (METAR ve TAF raporları).

Kullanılabilir istasyonlar harita üzerinde sarı ve kırmızı noktalarla gösterilir.

İstasyonun adını görmek için fareyi noktanın üzerinde gezdirin.

Sonrasında hava gözlem ve tahminlerini görmek için tıklayın.

Haritayı değiştirmek için: yaklaştırmak için siyah artı işaretli yeşil düğmeye ve uzaklaştırmak için de eksi işaretli düğmeye hızla tıklayın; bitişik haritalar için yeşil okları kullanın.


METAR-TAF: